createdAt,value
2023-03-06T14:58:28.314Z,82.24
2023-03-06T15:01:37.620Z,82.18
2023-03-06T15:04:52.661Z,82.96
2023-03-06T15:12:25.678Z,82.58
2023-03-06T15:15:31.729Z,82.68
2023-03-06T15:18:39.028Z,82.23
2023-03-06T15:21:55.076Z,82.10
2023-03-06T15:25:14.944Z,82.86
2023-03-06T15:28:38.805Z,82.74
2023-03-06T15:31:43.719Z,82.19
2023-03-06T15:34:46.776Z,82.59
2023-03-06T15:37:49.595Z,83.85
2023-03-06T15:40:57.672Z,85.04
2023-03-06T15:44:02.745Z,85.71
2023-03-06T15:47:09.162Z,85.61
2023-03-06T15:50:20.864Z,85.99
2023-03-06T15:53:24.427Z,87.33
2023-03-06T15:56:34.418Z,87.50
2023-03-06T15:59:44.092Z,87.87
2023-03-06T16:02:47.182Z,87.99
2023-03-06T16:05:50.173Z,88.32
2023-03-06T16:08:53.206Z,89.43
2023-03-06T16:11:56.212Z,89.21
2023-03-06T16:15:01.501Z,90.33
2023-03-06T16:18:06.281Z,91.38
2023-03-06T16:21:08.922Z,91.75
2023-03-06T16:24:15.899Z,91.87
2023-03-06T16:27:19.867Z,92.25
2023-03-06T16:30:25.313Z,93.51
2023-03-06T16:33:28.122Z,92.91
2023-03-06T16:36:31.600Z,93.40
2023-03-06T16:39:34.293Z,93.67
2023-03-06T16:42:37.374Z,94.11
2023-03-06T16:45:41.995Z,93.81
2023-03-06T16:48:45.309Z,93.33
2023-03-06T16:51:48.870Z,93.02
2023-03-06T16:54:51.937Z,93.63
2023-03-06T16:57:55.079Z,94.25
2023-03-06T17:00:58.194Z,93.73
2023-03-06T17:04:01.022Z,93.20
